Oxford, Arkansas
Current Conditions -  °F | °C
As of 7:53 AM on Saturday 20 Dec 2014 (Local Time) from KBPK Reporting Station
Haze Haze  
Wind Chill: 35°   Ceiling: 900
Heat Index: 35°   Visibility: 2.5mi
Dew Point: 35°   Wind: 3mph
Humidity: 100%   Direction: 140°SE
Pressure: 30.23"   Gusts: NA
Location:  36.22°N, 91.93°W
Report Text: KBPK 201353Z AUTO 14003KT 2 1/2SM BR FEW004 OVC009 02/02 A3023 RMK AO2 SLP241 T00170017
Loading
Personal Weather Stations






























Interactive Weather Map New forecast layout! Learn more

10-Day Weather Forecast

Advertisements
Track Severe Weather on mobile